sensor_id;sensor_type;location;lat;lon;timestamp;pressure;altitude;pressure_sealevel;temperature;humidity
7962;BME280;4026;43.652;24.906;2023-02-28T00:00:19;99912.66;;;4.64;100.00
7962;BME280;4026;43.652;24.906;2023-02-28T00:02:46;99921.84;;;4.43;100.00
7962;BME280;4026;43.652;24.906;2023-02-28T00:05:14;99917.47;;;4.47;100.00
7962;BME280;4026;43.652;24.906;2023-02-28T00:07:42;99913.97;;;4.51;100.00
7962;BME280;4026;43.652;24.906;2023-02-28T00:10:13;99929.72;;;4.59;100.00
7962;BME280;4026;43.652;24.906;2023-02-28T00:12:41;99926.97;;;4.65;100.00
7962;BME280;4026;43.652;24.906;2023-02-28T00:15:09;99928.19;;;4.55;100.00
7962;BME280;4026;43.652;24.906;2023-02-28T00:17:37;99923.59;;;4.66;100.00
7962;BME280;4026;43.652;24.906;2023-02-28T00:20:06;99921.09;;;4.65;100.00
7962;BME280;4026;43.652;24.906;2023-02-28T00:22:34;99932.13;;;4.64;100.00
7962;BME280;4026;43.652;24.906;2023-02-28T00:25:01;99945.31;;;4.48;100.00
7962;BME280;4026;43.652;24.906;2023-02-28T00:27:29;99945.34;;;4.47;100.00
7962;BME280;4026;43.652;24.906;2023-02-28T00:29:56;99957.75;;;4.54;100.00
7962;BME280;4026;43.652;24.906;2023-02-28T00:32:23;99961.13;;;4.28;100.00
7962;BME280;4026;43.652;24.906;2023-02-28T00:34:50;99963.19;;;4.17;100.00
7962;BME280;4026;43.652;24.906;2023-02-28T00:37:17;99967.94;;;4.26;100.00
7962;BME280;4026;43.652;24.906;2023-02-28T00:39:44;99956.56;;;4.13;100.00
7962;BME280;4026;43.652;24.906;2023-02-28T00:42:11;99957.03;;;4.24;100.00
7962;BME280;4026;43.652;24.906;2023-02-28T00:44:39;99971.06;;;4.35;100.00
7962;BME280;4026;43.652;24.906;2023-02-28T00:47:06;99982.84;;;4.36;100.00
7962;BME280;4026;43.652;24.906;2023-02-28T00:49:33;99993.25;;;4.26;100.00
7962;BME280;4026;43.652;24.906;2023-02-28T00:52:00;99979.66;;;4.30;100.00
7962;BME280;4026;43.652;24.906;2023-02-28T00:54:27;99990.19;;;4.17;100.00
7962;BME280;4026;43.652;24.906;2023-02-28T00:56:54;99985.38;;;4.09;100.00
7962;BME280;4026;43.652;24.906;2023-02-28T00:59:21;99988.97;;;4.02;100.00
7962;BME280;4026;43.652;24.906;2023-02-28T01:01:49;99990.97;;;4.19;100.00
7962;BME280;4026;43.652;24.906;2023-02-28T01:04:16;99998.56;;;4.19;100.00
7962;BME280;4026;43.652;24.906;2023-02-28T01:06:43;99990.22;;;4.15;100.00
7962;BME280;4026;43.652;24.906;2023-02-28T01:09:11;99991.06;;;4.16;100.00
7962;BME280;4026;43.652;24.906;2023-02-28T01:11:38;99993.84;;;4.08;100.00
7962;BME280;4026;43.652;24.906;2023-02-28T01:14:07;99993.94;;;4.05;100.00
7962;BME280;4026;43.652;24.906;2023-02-28T01:16:35;99997.13;;;4.10;100.00
7962;BME280;4026;43.652;24.906;2023-02-28T01:19:03;99997.31;;;4.04;100.00
7962;BME280;4026;43.652;24.906;2023-02-28T01:21:30;99994.56;;;4.12;100.00
7962;BME280;4026;43.652;24.906;2023-02-28T01:23:57;99991.53;;;4.00;100.00
7962;BME280;4026;43.652;24.906;2023-02-28T01:26:24;99988.31;;;3.95;100.00
7962;BME280;4026;43.652;24.906;2023-02-28T01:28:52;100000.34;;;3.89;100.00
7962;BME280;4026;43.652;24.906;2023-02-28T01:31:20;100001.59;;;3.75;100.00
7962;BME280;4026;43.652;24.906;2023-02-28T01:33:48;100004.25;;;3.71;100.00
7962;BME280;4026;43.652;24.906;2023-02-28T01:36:18;99992.28;;;3.76;100.00
7962;BME280;4026;43.652;24.906;2023-02-28T01:38:46;99989.78;;;3.74;100.00
7962;BME280;4026;43.652;24.906;2023-02-28T01:41:17;99994.84;;;3.74;100.00
7962;BME280;4026;43.652;24.906;2023-02-28T01:43:56;99992.94;;;3.82;100.00
7962;BME280;4026;43.652;24.906;2023-02-28T01:46:23;99997.91;;;3.85;100.00
7962;BME280;4026;43.652;24.906;2023-02-28T01:48:53;100005.22;;;3.67;100.00
7962;BME280;4026;43.652;24.906;2023-02-28T01:51:26;100012.81;;;3.67;100.00
7962;BME280;4026;43.652;24.906;2023-02-28T01:53:58;100000.38;;;3.59;100.00
7962;BME280;4026;43.652;24.906;2023-02-28T01:56:28;99995.22;;;3.62;100.00
7962;BME280;4026;43.652;24.906;2023-02-28T01:58:56;99987.28;;;3.45;100.00
7962;BME280;4026;43.652;24.906;2023-02-28T02:01:24;99979.50;;;3.52;100.00
7962;BME280;4026;43.652;24.906;2023-02-28T02:03:54;99984.84;;;3.42;100.00
7962;BME280;4026;43.652;24.906;2023-02-28T02:06:25;99986.66;;;3.38;100.00
7962;BME280;4026;43.652;24.906;2023-02-28T02:08:53;99982.59;;;3.32;100.00
7962;BME280;4026;43.652;24.906;2023-02-28T02:11:22;99991.03;;;3.31;100.00
7962;BME280;4026;43.652;24.906;2023-02-28T02:14:03;99995.31;;;3.29;100.00
7962;BME280;4026;43.652;24.906;2023-02-28T02:16:39;99994.69;;;3.21;100.00
7962;BME280;4026;43.652;24.906;2023-02-28T02:19:21;100001.28;;;3.27;100.00
7962;BME280;4026;43.652;24.906;2023-02-28T02:22:27;100004.06;;;3.17;100.00
7962;BME280;4026;43.652;24.906;2023-02-28T02:25:19;100008.81;;;3.28;100.00
7962;BME280;4026;43.652;24.906;2023-02-28T02:28:20;100003.22;;;3.17;100.00
7962;BME280;4026;43.652;24.906;2023-02-28T02:31:28;100001.22;;;3.28;100.00
7962;BME280;4026;43.652;24.906;2023-02-28T02:37:23;100018.97;;;3.27;100.00
7962;BME280;4026;43.652;24.906;2023-02-28T02:39:59;100015.81;;;3.18;100.00
7962;BME280;4026;43.652;24.906;2023-02-28T02:42:31;100020.22;;;3.12;100.00
7962;BME280;4026;43.652;24.906;2023-02-28T02:45:02;100018.47;;;3.14;100.00
7962;BME280;4026;43.652;24.906;2023-02-28T02:47:31;100023.66;;;3.08;100.00
7962;BME280;4026;43.652;24.906;2023-02-28T02:50:03;100024.72;;;3.01;100.00
7962;BME280;4026;43.652;24.906;2023-02-28T02:52:35;100021.16;;;3.08;100.00
7962;BME280;4026;43.652;24.906;2023-02-28T02:55:06;100013.09;;;2.93;100.00
7962;BME280;4026;43.652;24.906;2023-02-28T02:57:40;100011.38;;;2.95;100.00
7962;BME280;4026;43.652;24.906;2023-02-28T03:00:11;100009.09;;;2.86;100.00
7962;BME280;4026;43.652;24.906;2023-02-28T03:02:40;99989.78;;;2.84;100.00
7962;BME280;4026;43.652;24.906;2023-02-28T03:05:14;99990.69;;;2.81;100.00
7962;BME280;4026;43.652;24.906;2023-02-28T03:07:44;99992.41;;;2.79;100.00
7962;BME280;4026;43.652;24.906;2023-02-28T03:10:29;100005.69;;;2.87;100.00
7962;BME280;4026;43.652;24.906;2023-02-28T03:13:03;100005.19;;;2.75;100.00
7962;BME280;4026;43.652;24.906;2023-02-28T03:15:37;100012.69;;;2.76;100.00
7962;BME280;4026;43.652;24.906;2023-02-28T03:18:13;100031.50;;;2.66;100.00
7962;BME280;4026;43.652;24.906;2023-02-28T03:20:49;100021.25;;;2.72;100.00
7962;BME280;4026;43.652;24.906;2023-02-28T03:23:29;100022.28;;;2.65;100.00
7962;BME280;4026;43.652;24.906;2023-02-28T03:26:02;100014.53;;;2.71;100.00
7962;BME280;4026;43.652;24.906;2023-02-28T03:28:35;100016.25;;;2.69;100.00
7962;BME280;4026;43.652;24.906;2023-02-28T03:31:15;100022.13;;;2.71;100.00
7962;BME280;4026;43.652;24.906;2023-02-28T03:33:46;100022.88;;;2.73;100.00
7962;BME280;4026;43.652;24.906;2023-02-28T03:36:22;100029.16;;;2.58;100.00
7962;BME280;4026;43.652;24.906;2023-02-28T03:38:55;100026.44;;;2.66;100.00
7962;BME280;4026;43.652;24.906;2023-02-28T03:41:25;100026.38;;;2.69;100.00
7962;BME280;4026;43.652;24.906;2023-02-28T03:43:59;100016.59;;;2.55;100.00
7962;BME280;4026;43.652;24.906;2023-02-28T03:46:30;100011.31;;;2.64;100.00
7962;BME280;4026;43.652;24.906;2023-02-28T03:49:02;100024.88;;;2.62;100.00
7962;BME280;4026;43.652;24.906;2023-02-28T03:51:32;100019.59;;;2.71;100.00
7962;BME280;4026;43.652;24.906;2023-02-28T03:54:06;100029.16;;;2.58;100.00
7962;BME280;4026;43.652;24.906;2023-02-28T03:56:39;100019.81;;;2.62;100.00
7962;BME280;4026;43.652;24.906;2023-02-28T03:59:12;100024.00;;;2.61;100.00
7962;BME280;4026;43.652;24.906;2023-02-28T04:01:43;100032.50;;;2.59;100.00
7962;BME280;4026;43.652;24.906;2023-02-28T04:04:11;100019.88;;;2.59;100.00
7962;BME280;4026;43.652;24.906;2023-02-28T04:06:39;100021.72;;;2.52;100.00
7962;BME280;4026;43.652;24.906;2023-02-28T04:09:11;100016.66;;;2.54;100.00
7962;BME280;4026;43.652;24.906;2023-02-28T04:11:39;100011.59;;;2.54;100.00
7962;BME280;4026;43.652;24.906;2023-02-28T04:14:07;100022.63;;;2.49;100.00
7962;BME280;4026;43.652;24.906;2023-02-28T04:16:37;100014.38;;;2.43;100.00
7962;BME280;4026;43.652;24.906;2023-02-28T04:19:06;100014.22;;;2.49;100.00
7962;BME280;4026;43.652;24.906;2023-02-28T04:21:35;100007.47;;;2.49;100.00
7962;BME280;4026;43.652;24.906;2023-02-28T04:24:03;100016.50;;;2.60;100.00
7962;BME280;4026;43.652;24.906;2023-02-28T04:26:33;100015.19;;;2.43;100.00
7962;BME280;4026;43.652;24.906;2023-02-28T04:29:02;100026.66;;;2.57;100.00
7962;BME280;4026;43.652;24.906;2023-02-28T04:31:29;100029.97;;;2.59;100.00
7962;BME280;4026;43.652;24.906;2023-02-28T04:33:56;100041.00;;;2.56;100.00
7962;BME280;4026;43.652;24.906;2023-02-28T04:36:23;100049.53;;;2.51;100.00
7962;BME280;4026;43.652;24.906;2023-02-28T04:38:50;100044.63;;;2.44;100.00
7962;BME280;4026;43.652;24.906;2023-02-28T04:41:17;100038.78;;;2.42;100.00
7962;BME280;4026;43.652;24.906;2023-02-28T04:43:45;100027.66;;;2.49;100.00
7962;BME280;4026;43.652;24.906;2023-02-28T04:46:12;100030.31;;;2.45;100.00
7962;BME280;4026;43.652;24.906;2023-02-28T04:48:39;100019.31;;;2.47;100.00
7962;BME280;4026;43.652;24.906;2023-02-28T04:51:09;100016.81;;;2.46;100.00
7962;BME280;4026;43.652;24.906;2023-02-28T04:53:37;100021.53;;;2.60;100.00
7962;BME280;4026;43.652;24.906;2023-02-28T04:56:06;100023.50;;;2.48;100.00
7962;BME280;4026;43.652;24.906;2023-02-28T04:58:34;100019.41;;;2.43;100.00
7962;BME280;4026;43.652;24.906;2023-02-28T05:01:04;100018.44;;;2.48;100.00
7962;BME280;4026;43.652;24.906;2023-02-28T05:03:38;100017.41;;;2.57;100.00
7962;BME280;4026;43.652;24.906;2023-02-28T05:06:06;100034.50;;;2.46;100.00
7962;BME280;4026;43.652;24.906;2023-02-28T05:08:33;100031.88;;;2.51;100.00
7962;BME280;4026;43.652;24.906;2023-02-28T05:11:00;100040.50;;;2.40;100.00
7962;BME280;4026;43.652;24.906;2023-02-28T05:13:27;100045.63;;;2.37;100.00
7962;BME280;4026;43.652;24.906;2023-02-28T05:15:54;100052.41;;;2.35;100.00
7962;BME280;4026;43.652;24.906;2023-02-28T05:18:22;100054.16;;;2.33;100.00
7962;BME280;4026;43.652;24.906;2023-02-28T05:20:49;100070.88;;;2.37;100.00
7962;BME280;4026;43.652;24.906;2023-02-28T05:23:17;100076.81;;;2.35;100.00
7962;BME280;4026;43.652;24.906;2023-02-28T05:25:46;100085.78;;;2.46;100.00
7962;BME280;4026;43.652;24.906;2023-02-28T05:28:13;100082.59;;;2.38;100.00
7962;BME280;4026;43.652;24.906;2023-02-28T05:30:40;100086.75;;;2.42;100.00
7962;BME280;4026;43.652;24.906;2023-02-28T05:33:10;100079.09;;;2.45;100.00
7962;BME280;4026;43.652;24.906;2023-02-28T05:35:39;100077.72;;;2.32;100.00
7962;BME280;4026;43.652;24.906;2023-02-28T05:38:06;100085.88;;;2.43;100.00
7962;BME280;4026;43.652;24.906;2023-02-28T05:40:33;100090.00;;;2.47;100.00
7962;BME280;4026;43.652;24.906;2023-02-28T05:43:00;100090.91;;;2.43;100.00
7962;BME280;4026;43.652;24.906;2023-02-28T05:45:27;100108.59;;;2.43;100.00
7962;BME280;4026;43.652;24.906;2023-02-28T05:47:54;100105.31;;;2.40;100.00
7962;BME280;4026;43.652;24.906;2023-02-28T05:50:21;100103.25;;;2.56;100.00
7962;BME280;4026;43.652;24.906;2023-02-28T05:52:50;100109.19;;;2.55;100.00
7962;BME280;4026;43.652;24.906;2023-02-28T05:55:18;100099.28;;;2.45;100.00
7962;BME280;4026;43.652;24.906;2023-02-28T05:57:44;100095.75;;;2.53;100.00
7962;BME280;4026;43.652;24.906;2023-02-28T06:00:13;100095.13;;;2.44;100.00
7962;BME280;4026;43.652;24.906;2023-02-28T06:02:41;100092.38;;;2.54;100.00
7962;BME280;4026;43.652;24.906;2023-02-28T06:05:13;100097.50;;;2.51;100.00
7962;BME280;4026;43.652;24.906;2023-02-28T06:07:40;100092.59;;;2.44;100.00
7962;BME280;4026;43.652;24.906;2023-02-28T06:10:10;100090.63;;;2.56;100.00
7962;BME280;4026;43.652;24.906;2023-02-28T06:12:38;100098.94;;;2.61;100.00
7962;BME280;4026;43.652;24.906;2023-02-28T06:15:09;100089.13;;;2.48;100.00
7962;BME280;4026;43.652;24.906;2023-02-28T06:17:38;100094.25;;;2.45;100.00
7962;BME280;4026;43.652;24.906;2023-02-28T06:20:06;100089.06;;;2.52;100.00
7962;BME280;4026;43.652;24.906;2023-02-28T06:22:35;100093.41;;;2.45;100.00
7962;BME280;4026;43.652;24.906;2023-02-28T06:25:02;100086.44;;;2.56;100.00
7962;BME280;4026;43.652;24.906;2023-02-28T06:27:30;100091.66;;;2.47;100.00
7962;BME280;4026;43.652;24.906;2023-02-28T06:29:57;100090.03;;;2.46;100.00
7962;BME280;4026;43.652;24.906;2023-02-28T06:32:24;100093.22;;;2.53;100.00
7962;BME280;4026;43.652;24.906;2023-02-28T06:34:51;100101.84;;;2.44;100.00
7962;BME280;4026;43.652;24.906;2023-02-28T06:37:18;100105.78;;;2.56;100.00
7962;BME280;4026;43.652;24.906;2023-02-28T06:39:45;100108.13;;;2.26;100.00
7962;BME280;4026;43.652;24.906;2023-02-28T06:42:12;100102.03;;;2.36;100.00
7962;BME280;4026;43.652;24.906;2023-02-28T06:44:40;100100.94;;;2.46;100.00
7962;BME280;4026;43.652;24.906;2023-02-28T06:47:08;100112.06;;;2.38;100.00
7962;BME280;4026;43.652;24.906;2023-02-28T06:49:35;100114.44;;;2.45;100.00
7962;BME280;4026;43.652;24.906;2023-02-28T06:52:02;100129.16;;;2.64;100.00
7962;BME280;4026;43.652;24.906;2023-02-28T06:54:29;100123.34;;;2.62;100.00
7962;BME280;4026;43.652;24.906;2023-02-28T06:56:57;100127.78;;;2.51;100.00
7962;BME280;4026;43.652;24.906;2023-02-28T06:59:24;100124.38;;;2.52;100.00
7962;BME280;4026;43.652;24.906;2023-02-28T07:01:52;100131.00;;;2.56;100.00
7962;BME280;4026;43.652;24.906;2023-02-28T07:04:20;100142.16;;;2.47;100.00
7962;BME280;4026;43.652;24.906;2023-02-28T07:06:47;100145.69;;;2.40;100.00
7962;BME280;4026;43.652;24.906;2023-02-28T07:09:14;100139.81;;;2.39;100.00
7962;BME280;4026;43.652;24.906;2023-02-28T07:11:41;100150.69;;;2.41;100.00
7962;BME280;4026;43.652;24.906;2023-02-28T07:14:09;100142.13;;;2.48;100.00
7962;BME280;4026;43.652;24.906;2023-02-28T07:16:36;100141.41;;;2.43;100.00
7962;BME280;4026;43.652;24.906;2023-02-28T07:19:04;100144.66;;;2.48;100.00
7962;BME280;4026;43.652;24.906;2023-02-28T07:21:31;100148.75;;;2.53;100.00
7962;BME280;4026;43.652;24.906;2023-02-28T07:23:58;100142.94;;;2.51;100.00
7962;BME280;4026;43.652;24.906;2023-02-28T07:26:25;100141.78;;;2.64;100.00
7962;BME280;4026;43.652;24.906;2023-02-28T07:28:51;100145.41;;;2.52;100.00
7962;BME280;4026;43.652;24.906;2023-02-28T07:31:19;100138.78;;;2.46;100.00
7962;BME280;4026;43.652;24.906;2023-02-28T07:33:46;100137.81;;;2.54;100.00
7962;BME280;4026;43.652;24.906;2023-02-28T07:36:16;100147.91;;;2.54;100.00
7962;BME280;4026;43.652;24.906;2023-02-28T07:38:45;100148.06;;;2.46;100.00
7962;BME280;4026;43.652;24.906;2023-02-28T07:41:21;100149.69;;;2.48;100.00
7962;BME280;4026;43.652;24.906;2023-02-28T07:43:49;100146.22;;;2.53;100.00
7962;BME280;4026;43.652;24.906;2023-02-28T07:46:16;100150.72;;;2.40;100.00
7962;BME280;4026;43.652;24.906;2023-02-28T07:48:46;100154.00;;;2.45;100.00
7962;BME280;4026;43.652;24.906;2023-02-28T07:51:14;100160.47;;;2.57;100.00
7962;BME280;4026;43.652;24.906;2023-02-28T07:53:41;100168.03;;;2.57;100.00
7962;BME280;4026;43.652;24.906;2023-02-28T07:56:08;100164.56;;;2.61;100.00
7962;BME280;4026;43.652;24.906;2023-02-28T07:58:36;100168.50;;;2.74;100.00
7962;BME280;4026;43.652;24.906;2023-02-28T08:01:06;100170.22;;;2.72;100.00
7962;BME280;4026;43.652;24.906;2023-02-28T08:03:33;100172.88;;;2.66;100.00
7962;BME280;4026;43.652;24.906;2023-02-28T08:06:01;100171.97;;;2.68;100.00
7962;BME280;4026;43.652;24.906;2023-02-28T08:08:30;100181.13;;;2.74;100.00
7962;BME280;4026;43.652;24.906;2023-02-28T08:10:58;100170.97;;;2.76;100.00
7962;BME280;4026;43.652;24.906;2023-02-28T08:13:26;100172.88;;;2.66;100.00
7962;BME280;4026;43.652;24.906;2023-02-28T08:15:53;100167.53;;;2.78;100.00
7962;BME280;4026;43.652;24.906;2023-02-28T08:18:21;100164.28;;;2.73;100.00
7962;BME280;4026;43.652;24.906;2023-02-28T08:20:48;100162.50;;;2.78;100.00
7962;BME280;4026;43.652;24.906;2023-02-28T08:23:15;100160.56;;;2.89;100.00
7962;BME280;4026;43.652;24.906;2023-02-28T08:25:43;100162.56;;;2.75;100.00
7962;BME280;4026;43.652;24.906;2023-02-28T08:28:10;100166.66;;;2.81;100.00
7962;BME280;4026;43.652;24.906;2023-02-28T08:30:37;100164.94;;;2.83;100.00
7962;BME280;4026;43.652;24.906;2023-02-28T08:33:06;100171.91;;;2.71;100.00
7962;BME280;4026;43.652;24.906;2023-02-28T08:35:35;100175.25;;;2.72;100.00
7962;BME280;4026;43.652;24.906;2023-02-28T08:38:02;100175.25;;;2.74;100.00
7962;BME280;4026;43.652;24.906;2023-02-28T08:40:29;100183.13;;;2.60;100.00
7962;BME280;4026;43.652;24.906;2023-02-28T08:42:57;100168.81;;;2.59;100.00
7962;BME280;4026;43.652;24.906;2023-02-28T08:45:25;100161.06;;;2.68;100.00
7962;BME280;4026;43.652;24.906;2023-02-28T08:47:53;100163.44;;;2.74;100.00
7962;BME280;4026;43.652;24.906;2023-02-28T08:50:20;100157.50;;;2.75;100.00
7962;BME280;4026;43.652;24.906;2023-02-28T08:52:47;100155.81;;;2.76;100.00
7962;BME280;4026;43.652;24.906;2023-02-28T08:55:14;100159.75;;;2.87;100.00
7962;BME280;4026;43.652;24.906;2023-02-28T08:57:41;100158.69;;;2.98;100.00
7962;BME280;4026;43.652;24.906;2023-02-28T09:00:11;100157.16;;;2.90;100.00
7962;BME280;4026;43.652;24.906;2023-02-28T09:02:38;100160.41;;;2.95;100.00
7962;BME280;4026;43.652;24.906;2023-02-28T09:05:06;100153.63;;;2.98;100.00
7962;BME280;4026;43.652;24.906;2023-02-28T09:07:34;100157.84;;;2.97;100.00
7962;BME280;4026;43.652;24.906;2023-02-28T09:10:01;100157.00;;;2.97;100.00
7962;BME280;4026;43.652;24.906;2023-02-28T09:12:34;100169.38;;;3.07;100.00
7962;BME280;4026;43.652;24.906;2023-02-28T09:15:01;100162.00;;;3.00;100.00
7962;BME280;4026;43.652;24.906;2023-02-28T09:17:30;100170.28;;;3.05;100.00
7962;BME280;4026;43.652;24.906;2023-02-28T09:19:57;100171.97;;;3.06;100.00
7962;BME280;4026;43.652;24.906;2023-02-28T09:22:24;100176.78;;;3.15;100.00
7962;BME280;4026;43.652;24.906;2023-02-28T09:24:50;100165.94;;;3.11;100.00
7962;BME280;4026;43.652;24.906;2023-02-28T09:27:17;100173.44;;;3.14;100.00
7962;BME280;4026;43.652;24.906;2023-02-28T09:29:44;100178.13;;;3.28;100.00
7962;BME280;4026;43.652;24.906;2023-02-28T09:32:11;100180.78;;;3.24;100.00
7962;BME280;4026;43.652;24.906;2023-02-28T09:34:39;100189.22;;;3.23;100.00
7962;BME280;4026;43.652;24.906;2023-02-28T09:37:06;100186.50;;;3.30;100.00
7962;BME280;4026;43.652;24.906;2023-02-28T09:39:33;100187.75;;;3.14;100.00
7962;BME280;4026;43.652;24.906;2023-02-28T09:42:02;100195.31;;;3.14;100.00
7962;BME280;4026;43.652;24.906;2023-02-28T09:44:33;100192.88;;;3.11;100.00
7962;BME280;4026;43.652;24.906;2023-02-28T09:47:07;100192.72;;;3.17;100.00
7962;BME280;4026;43.652;24.906;2023-02-28T09:49:42;100191.66;;;3.27;100.00
7962;BME280;4026;43.652;24.906;2023-02-28T09:52:15;100198.50;;;3.22;100.00
7962;BME280;4026;43.652;24.906;2023-02-28T09:54:45;100195.25;;;3.17;100.00
7962;BME280;4026;43.652;24.906;2023-02-28T09:57:17;100196.56;;;3.33;100.00
7962;BME280;4026;43.652;24.906;2023-02-28T09:59:55;100189.84;;;3.32;100.00
7962;BME280;4026;43.652;24.906;2023-02-28T10:02:49;100198.00;;;3.44;100.00
7962;BME280;4026;43.652;24.906;2023-02-28T10:05:21;100193.94;;;3.36;100.00
7962;BME280;4026;43.652;24.906;2023-02-28T10:08:01;100195.31;;;3.50;100.00
7962;BME280;4026;43.652;24.906;2023-02-28T10:10:35;100190.56;;;3.37;100.00
7962;BME280;4026;43.652;24.906;2023-02-28T10:13:05;100182.81;;;3.44;100.00
7962;BME280;4026;43.652;24.906;2023-02-28T10:15:37;100188.00;;;3.39;100.00
7962;BME280;4026;43.652;24.906;2023-02-28T10:18:09;100171.81;;;3.46;100.00
7962;BME280;4026;43.652;24.906;2023-02-28T10:20:39;100172.63;;;3.47;100.00
7962;BME280;4026;43.652;24.906;2023-02-28T10:23:12;100169.34;;;3.43;100.00
7962;BME280;4026;43.652;24.906;2023-02-28T10:25:43;100167.66;;;3.44;100.00
7962;BME280;4026;43.652;24.906;2023-02-28T10:28:15;100170.78;;;3.52;100.00
7962;BME280;4026;43.652;24.906;2023-02-28T10:30:45;100178.50;;;3.47;100.00
7962;BME280;4026;43.652;24.906;2023-02-28T10:33:22;100170.50;;;3.64;100.00
7962;BME280;4026;43.652;24.906;2023-02-28T10:35:52;100170.97;;;3.46;100.00
7962;BME280;4026;43.652;24.906;2023-02-28T10:38:21;100163.34;;;3.47;100.00
7962;BME280;4026;43.652;24.906;2023-02-28T10:40:50;100159.63;;;3.60;100.00
7962;BME280;4026;43.652;24.906;2023-02-28T10:43:21;100156.88;;;3.68;100.00
7962;BME280;4026;43.652;24.906;2023-02-28T10:45:58;100158.94;;;3.55;100.00
7962;BME280;4026;43.652;24.906;2023-02-28T10:48:37;100160.06;;;3.75;100.00
7962;BME280;4026;43.652;24.906;2023-02-28T10:51:07;100162.00;;;3.67;100.00
7962;BME280;4026;43.652;24.906;2023-02-28T10:53:38;100164.75;;;3.57;100.00
7962;BME280;4026;43.652;24.906;2023-02-28T10:56:15;100147.03;;;3.59;100.00
7962;BME280;4026;43.652;24.906;2023-02-28T10:58:50;100141.97;;;3.59;100.00
7962;BME280;4026;43.652;24.906;2023-02-28T11:01:19;100146.88;;;3.63;100.00
7962;BME280;4026;43.652;24.906;2023-02-28T11:03:47;100145.44;;;3.55;100.00
7962;BME280;4026;43.652;24.906;2023-02-28T11:06:18;100141.38;;;3.80;100.00
7962;BME280;4026;43.652;24.906;2023-02-28T11:08:48;100140.38;;;3.55;100.00
7962;BME280;4026;43.652;24.906;2023-02-28T11:11:16;100140.84;;;3.69;100.00
7962;BME280;4026;43.652;24.906;2023-02-28T11:13:45;100140.00;;;3.70;100.00
7962;BME280;4026;43.652;24.906;2023-02-28T11:16:14;100141.63;;;3.71;100.00
7962;BME280;4026;43.652;24.906;2023-02-28T11:18:46;100134.47;;;3.56;100.00
7962;BME280;4026;43.652;24.906;2023-02-28T11:21:22;100135.56;;;3.78;100.00
7962;BME280;4026;43.652;24.906;2023-02-28T11:23:51;100124.19;;;3.92;100.00
7962;BME280;4026;43.652;24.906;2023-02-28T11:26:40;100116.00;;;3.83;100.00
7962;BME280;4026;43.652;24.906;2023-02-28T11:29:20;100122.13;;;3.75;100.00
7962;BME280;4026;43.652;24.906;2023-02-28T11:32:12;100120.38;;;4.08;100.00
7962;BME280;4026;43.652;24.906;2023-02-28T11:34:40;100116.97;;;4.09;100.00
7962;BME280;4026;43.652;24.906;2023-02-28T11:37:13;100112.72;;;4.09;100.00
7962;BME280;4026;43.652;24.906;2023-02-28T11:39:41;100113.50;;;4.12;100.00
7962;BME280;4026;43.652;24.906;2023-02-28T11:45:12;100117.97;;;4.03;100.00
7962;BME280;4026;43.652;24.906;2023-02-28T11:47:47;100113.72;;;4.04;100.00
7962;BME280;4026;43.652;24.906;2023-02-28T11:50:22;100111.25;;;4.02;100.00
7962;BME280;4026;43.652;24.906;2023-02-28T11:52:56;100111.53;;;4.21;100.00
7962;BME280;4026;43.652;24.906;2023-02-28T11:55:25;100111.81;;;4.12;100.00
7962;BME280;4026;43.652;24.906;2023-02-28T11:58:08;100121.50;;;3.98;100.00
7962;BME280;4026;43.652;24.906;2023-02-28T12:01:04;100124.53;;;4.11;100.00
7962;BME280;4026;43.652;24.906;2023-02-28T12:03:42;100118.38;;;4.19;100.00
7962;BME280;4026;43.652;24.906;2023-02-28T12:06:18;100123.44;;;4.19;100.00
7962;BME280;4026;43.652;24.906;2023-02-28T12:09:02;100125.63;;;4.02;100.00
7962;BME280;4026;43.652;24.906;2023-02-28T12:11:40;100122.28;;;4.00;100.00
7962;BME280;4026;43.652;24.906;2023-02-28T12:17:14;100111.16;;;4.05;100.00
7962;BME280;4026;43.652;24.906;2023-02-28T12:19:49;100107.09;;;4.00;100.00
7962;BME280;4026;43.652;24.906;2023-02-28T12:22:26;100111.09;;;4.07;100.00
7962;BME280;4026;43.652;24.906;2023-02-28T12:25:19;100108.66;;;4.04;100.00
7962;BME280;4026;43.652;24.906;2023-02-28T12:27:49;100104.22;;;3.82;100.00
7962;BME280;4026;43.652;24.906;2023-02-28T12:30:21;100105.97;;;3.80;100.00
7962;BME280;4026;43.652;24.906;2023-02-28T12:32:54;100110.34;;;4.05;100.00
7962;BME280;4026;43.652;24.906;2023-02-28T12:35:26;100110.53;;;3.99;100.00
7962;BME280;4026;43.652;24.906;2023-02-28T12:37:58;100111.91;;;4.09;100.00
7962;BME280;4026;43.652;24.906;2023-02-28T12:40:38;100108.44;;;4.13;100.00
7962;BME280;4026;43.652;24.906;2023-02-28T12:43:09;100107.81;;;4.05;100.00
7962;BME280;4026;43.652;24.906;2023-02-28T12:45:43;100103.91;;;4.23;100.00
7962;BME280;4026;43.652;24.906;2023-02-28T12:48:15;100100.13;;;4.08;100.00
7962;BME280;4026;43.652;24.906;2023-02-28T12:50:45;100096.72;;;4.09;100.00
7962;BME280;4026;43.652;24.906;2023-02-28T12:53:18;100104.78;;;4.22;100.00
7962;BME280;4026;43.652;24.906;2023-02-28T12:55:59;100095.06;;;4.08;100.00
7962;BME280;4026;43.652;24.906;2023-02-28T12:58:35;100091.00;;;4.02;100.00
7962;BME280;4026;43.652;24.906;2023-02-28T13:01:22;100098.09;;;3.90;100.00
7962;BME280;4026;43.652;24.906;2023-02-28T13:04:20;100090.84;;;4.08;100.00
7962;BME280;4026;43.652;24.906;2023-02-28T13:07:20;100093.38;;;4.07;100.00
7962;BME280;4026;43.652;24.906;2023-02-28T13:09:52;100095.41;;;4.25;100.00
7962;BME280;4026;43.652;24.906;2023-02-28T13:12:23;100096.34;;;4.21;100.00
7962;BME280;4026;43.652;24.906;2023-02-28T13:14:50;100095.41;;;4.25;100.00
7962;BME280;4026;43.652;24.906;2023-02-28T13:17:28;100093.97;;;4.17;100.00
7962;BME280;4026;43.652;24.906;2023-02-28T13:19:57;100082.34;;;4.09;100.00
7962;BME280;4026;43.652;24.906;2023-02-28T13:22:44;100089.72;;;4.17;100.00
7962;BME280;4026;43.652;24.906;2023-02-28T13:25:53;100102.59;;;4.09;100.00
7962;BME280;4026;43.652;24.906;2023-02-28T13:34:40;100103.34;;;4.13;100.00
7962;BME280;4026;43.652;24.906;2023-02-28T13:37:34;100103.19;;;4.19;100.00